Time;durP1;ratioP1;P1;durP2;ratioP2;P2;SDS_P1;SDS_P2;PMS_P1;PMS_P2;Temp;Humidity;BMP_temperature;BMP_pressure;BME280_temperature;BME280_humidity;BME280_pressure;Samples;Min_cycle;Max_cycle;Signal;HPM_P1;HPM_P2
2022/07/02 00:02:23;;;;;;;0.63;0.30;;;12.60;99.90;;;;;;5100396;28;20468;-85
2022/07/02 00:04:59;;;;;;;0.50;0.30;;;12.50;99.90;;;;;;5105893;28;20451;-85
2022/07/02 00:07:27;;;;;;;0.57;0.47;;;12.50;99.90;;;;;;5098936;28;20475;-85
2022/07/02 00:09:55;;;;;;;0.80;0.40;;;12.50;99.90;;;;;;5102238;28;20831;-85
2022/07/02 00:12:23;;;;;;;0.50;0.40;;;12.50;99.90;;;;;;5103514;28;20455;-85
2022/07/02 00:14:53;;;;;;;0.83;0.40;;;12.40;99.90;;;;;;5101457;28;20530;-87
2022/07/02 00:17:21;;;;;;;0.70;0.30;;;12.50;99.90;;;;;;5103336;28;20494;-86
2022/07/02 00:19:49;;;;;;;1.00;0.50;;;12.40;99.90;;;;;;5105730;28;20541;-85
2022/07/02 00:22:18;;;;;;;1.13;0.40;;;12.60;99.90;;;;;;5098450;28;20457;-87
2022/07/02 00:24:46;;;;;;;1.90;0.57;;;12.50;99.90;;;;;;5103503;28;20511;-84
2022/07/02 00:27:15;;;;;;;0.60;0.40;;;12.60;99.90;;;;;;5103754;28;20459;-88
2022/07/02 00:29:50;;;;;;;0.43;0.40;;;12.40;99.90;;;;;;5105900;28;20447;-83
2022/07/02 00:32:17;;;;;;;0.40;0.30;;;12.40;99.90;;;;;;5105939;28;20463;-82
2022/07/02 00:34:47;;;;;;;0.60;0.40;;;12.50;99.90;;;;;;5102831;28;20454;-84
2022/07/02 00:37:15;;;;;;;2.30;1.57;;;12.40;99.90;;;;;;5101950;28;21601;-84
2022/07/02 00:39:43;;;;;;;0.63;0.47;;;12.40;99.90;;;;;;5105712;28;20475;-86
2022/07/02 00:42:11;;;;;;;0.40;0.30;;;12.40;99.90;;;;;;5097479;28;20903;-84
2022/07/02 00:44:40;;;;;;;0.57;0.50;;;12.40;99.90;;;;;;5104950;28;20521;-83
2022/07/02 00:47:09;;;;;;;0.50;0.30;;;12.40;99.90;;;;;;5101637;28;20466;-82
2022/07/02 00:49:37;;;;;;;0.50;0.30;;;12.30;99.90;;;;;;5098864;28;20461;-83
2022/07/02 00:52:06;;;;;;;0.40;0.30;;;12.20;99.90;;;;;;5099747;28;20515;-84
2022/07/02 00:54:35;;;;;;;0.70;0.30;;;12.30;99.90;;;;;;5101638;28;20558;-83
2022/07/02 00:57:04;;;;;;;0.90;0.40;;;12.20;99.90;;;;;;5101907;28;21204;-84
2022/07/02 00:59:32;;;;;;;0.50;0.30;;;12.30;99.90;;;;;;5102834;28;20548;-85
2022/07/02 01:02:00;;;;;;;0.50;0.40;;;12.20;99.90;;;;;;5102765;28;21096;-84
2022/07/02 01:04:29;;;;;;;1.20;0.40;;;12.30;99.90;;;;;;5103533;28;20551;-83
2022/07/02 01:07:01;;;;;;;0.40;0.30;;;12.20;99.90;;;;;;5102221;28;20472;-83
2022/07/02 01:12:17;;;;;;;0.57;0.40;;;12.10;99.90;;;;;;5106001;28;21142;-84
2022/07/02 01:14:46;;;;;;;0.83;0.30;;;12.30;99.90;;;;;;5103802;28;20919;-83
2022/07/02 01:17:13;;;;;;;1.33;0.40;;;12.10;99.90;;;;;;5106735;28;20518;-82
2022/07/02 01:19:40;;;;;;;0.60;0.30;;;12.10;99.90;;;;;;5101630;28;20462;-82
2022/07/02 01:22:18;;;;;;;1.80;0.70;;;12.10;99.90;;;;;;5107018;28;20626;-85
2022/07/02 01:24:46;;;;;;;1.03;0.30;;;12.10;99.90;;;;;;5104685;28;20970;-83
2022/07/02 01:27:13;;;;;;;0.40;0.30;;;12.20;99.90;;;;;;5104570;28;20522;-83
2022/07/02 01:29:40;;;;;;;1.03;0.50;;;12.00;99.90;;;;;;5102798;28;21084;-85
2022/07/02 01:32:09;;;;;;;0.40;0.30;;;11.90;99.90;;;;;;5107610;28;20541;-84
2022/07/02 01:34:37;;;;;;;0.50;0.40;;;11.80;99.90;;;;;;5101939;28;20479;-85
2022/07/02 01:37:07;;;;;;;0.40;0.30;;;11.80;99.90;;;;;;5100969;28;20476;-84
2022/07/02 01:39:36;;;;;;;0.40;0.30;;;11.90;99.90;;;;;;5106829;28;20450;-83
2022/07/02 01:42:03;;;;;;;1.00;0.40;;;11.90;99.90;;;;;;5106567;28;20945;-83
2022/07/02 01:44:30;;;;;;;0.57;0.30;;;11.90;99.90;;;;;;5102946;28;20935;-82
2022/07/02 01:46:57;;;;;;;0.40;0.20;;;11.80;99.90;;;;;;5102277;28;20456;-84
2022/07/02 01:49:24;;;;;;;0.60;0.33;;;11.70;99.90;;;;;;5108320;28;20442;-84
2022/07/02 01:51:51;;;;;;;0.53;0.30;;;11.60;99.90;;;;;;5105645;28;20479;-84
2022/07/02 01:54:18;;;;;;;0.50;0.47;;;11.70;99.90;;;;;;5105681;28;20875;-85
2022/07/02 01:56:46;;;;;;;0.40;0.40;;;11.60;99.90;;;;;;5103933;28;20994;-84
2022/07/02 01:59:14;;;;;;;0.40;0.30;;;11.50;99.90;;;;;;5107832;28;20466;-84
2022/07/02 02:01:41;;;;;;;0.40;0.30;;;11.70;99.90;;;;;;5107044;27;21196;-83
2022/07/02 02:04:08;;;;;;;0.50;0.40;;;11.80;99.90;;;;;;5106218;28;20500;-84
2022/07/02 02:06:36;;;;;;;0.40;0.37;;;11.90;99.90;;;;;;5101685;28;20471;-83
2022/07/02 02:09:04;;;;;;;0.40;0.33;;;12.10;99.90;;;;;;5105569;28;20467;-84
2022/07/02 02:11:31;;;;;;;0.50;0.30;;;12.00;99.90;;;;;;5099227;28;20484;-83
2022/07/02 02:14:00;;;;;;;1.70;0.60;;;12.20;99.90;;;;;;5102951;28;20498;-85
2022/07/02 02:16:28;;;;;;;0.60;0.33;;;12.00;99.90;;;;;;5100998;28;20457;-84
2022/07/02 02:18:57;;;;;;;0.40;0.30;;;11.90;99.90;;;;;;5104347;28;20525;-86
2022/07/02 02:21:25;;;;;;;0.50;0.30;;;11.70;99.90;;;;;;5100531;28;20836;-87
2022/07/02 02:23:52;;;;;;;0.40;0.30;;;11.70;99.90;;;;;;5104071;28;20469;-84
2022/07/02 02:26:21;;;;;;;0.37;0.27;;;11.70;99.90;;;;;;5103414;28;20520;-85
2022/07/02 02:28:48;;;;;;;1.80;0.37;;;11.60;99.90;;;;;;5105802;28;20507;-84
2022/07/02 02:31:17;;;;;;;0.60;0.30;;;11.70;99.90;;;;;;5105207;28;20957;-85
2022/07/02 02:33:44;;;;;;;0.53;0.30;;;11.60;99.90;;;;;;5104609;28;20501;-85
2022/07/02 02:36:11;;;;;;;0.40;0.40;;;11.60;99.90;;;;;;5107610;28;20960;-85
2022/07/02 02:38:38;;;;;;;0.40;0.30;;;11.50;99.90;;;;;;5115241;28;20458;-85
2022/07/02 02:41:06;;;;;;;0.40;0.20;;;11.60;99.90;;;;;;5109514;28;20520;-85
2022/07/02 02:43:33;;;;;;;0.40;0.30;;;11.50;99.90;;;;;;5102543;28;20906;-85
2022/07/02 02:46:00;;;;;;;0.40;0.30;;;11.50;99.90;;;;;;5104788;28;20482;-86
2022/07/02 02:48:30;;;;;;;0.83;0.40;;;11.50;99.90;;;;;;5103421;28;20867;-85
2022/07/02 02:50:57;;;;;;;0.50;0.33;;;11.50;99.90;;;;;;5101680;28;20485;-85
2022/07/02 02:53:24;;;;;;;0.57;0.33;;;11.40;99.90;;;;;;5102711;28;20991;-84
2022/07/02 02:55:51;;;;;;;0.60;0.40;;;11.40;99.90;;;;;;5103067;28;20497;-86
2022/07/02 02:58:18;;;;;;;0.60;0.40;;;11.30;99.90;;;;;;5105859;28;20454;-84
2022/07/02 03:00:46;;;;;;;1.53;0.30;;;11.40;99.90;;;;;;5102803;28;20489;-83
2022/07/02 03:03:13;;;;;;;0.40;0.37;;;11.40;99.90;;;;;;5103162;28;20456;-85
2022/07/02 03:05:41;;;;;;;0.60;0.33;;;11.40;99.90;;;;;;5099565;28;20516;-85
2022/07/02 03:08:08;;;;;;;0.40;0.30;;;11.60;99.90;;;;;;5102671;28;20458;-84
2022/07/02 03:10:35;;;;;;;0.50;0.40;;;11.60;99.90;;;;;;5103575;28;20539;-84
2022/07/02 03:13:02;;;;;;;0.40;0.30;;;11.50;99.90;;;;;;5102749;28;20945;-87
2022/07/02 03:15:30;;;;;;;0.40;0.40;;;11.70;99.90;;;;;;5099091;28;20454;-85
2022/07/02 03:17:57;;;;;;;0.50;0.37;;;11.70;99.90;;;;;;5100550;28;20476;-86
2022/07/02 03:20:24;;;;;;;0.50;0.40;;;11.80;99.90;;;;;;5103825;28;20491;-84
2022/07/02 03:22:52;;;;;;;0.50;0.30;;;11.70;99.90;;;;;;5102258;28;20463;-85
2022/07/02 03:25:19;;;;;;;1.13;0.50;;;11.80;99.90;;;;;;5099579;28;20521;-84
2022/07/02 03:27:46;;;;;;;0.40;0.40;;;11.80;99.90;;;;;;5104672;28;20506;-86
2022/07/02 03:30:13;;;;;;;0.40;0.30;;;12.00;99.90;;;;;;5101088;28;20884;-84
2022/07/02 03:32:40;;;;;;;0.40;0.27;;;11.90;99.90;;;;;;5102407;28;21200;-84
2022/07/02 03:35:08;;;;;;;0.40;0.30;;;11.60;99.90;;;;;;5102694;28;20466;-83
2022/07/02 03:37:35;;;;;;;0.50;0.30;;;11.60;99.90;;;;;;5102565;28;20509;-83
2022/07/02 03:40:04;;;;;;;0.40;0.30;;;11.60;99.90;;;;;;5099837;28;20553;-87
2022/07/02 03:42:31;;;;;;;0.47;0.40;;;11.70;99.90;;;;;;5101254;28;20801;-86
2022/07/02 03:44:58;;;;;;;0.60;0.30;;;11.70;99.90;;;;;;5103868;28;20451;-85
2022/07/02 03:47:25;;;;;;;0.50;0.30;;;11.90;99.90;;;;;;5102831;28;21016;-84
2022/07/02 03:49:52;;;;;;;2.97;0.43;;;11.90;99.90;;;;;;5103625;28;20555;-86
2022/07/02 03:52:19;;;;;;;0.47;0.40;;;12.00;99.90;;;;;;5105347;28;21101;-85
2022/07/02 03:54:46;;;;;;;0.50;0.30;;;12.00;99.90;;;;;;5102125;28;20518;-85
2022/07/02 03:57:14;;;;;;;0.93;0.40;;;12.10;99.90;;;;;;5101845;28;20463;-85
2022/07/02 03:59:41;;;;;;;0.60;0.50;;;12.00;99.90;;;;;;5102321;28;20463;-85
2022/07/02 04:02:08;;;;;;;0.40;0.30;;;12.00;99.90;;;;;;5104656;28;20539;-86
2022/07/02 04:04:35;;;;;;;0.40;0.30;;;12.00;99.90;;;;;;5100998;28;20490;-85
2022/07/02 04:07:02;;;;;;;1.13;0.30;;;12.10;99.90;;;;;;5099853;28;20473;-88
2022/07/02 04:09:29;;;;;;;0.40;0.40;;;12.10;99.90;;;;;;5104013;28;20524;-85
2022/07/02 04:11:56;;;;;;;0.40;0.30;;;12.20;99.90;;;;;;5102181;28;20489;-85
2022/07/02 04:14:25;;;;;;;0.40;0.20;;;12.10;99.90;;;;;;5100568;28;21088;-87
2022/07/02 04:16:52;;;;;;;0.40;0.40;;;12.40;99.90;;;;;;5104768;28;20462;-85
2022/07/02 04:19:19;;;;;;;0.40;0.30;;;12.40;99.90;;;;;;5103350;28;20462;-86
2022/07/02 04:21:46;;;;;;;0.50;0.40;;;12.30;99.90;;;;;;5101846;28;20496;-85
2022/07/02 04:24:13;;;;;;;0.40;0.30;;;12.50;99.90;;;;;;5103850;28;20467;-87
2022/07/02 04:26:39;;;;;;;0.40;0.30;;;12.60;99.90;;;;;;5098863;28;20466;-85
2022/07/02 04:29:06;;;;;;;0.50;0.40;;;12.70;99.90;;;;;;5101465;28;20437;-84
2022/07/02 04:31:35;;;;;;;0.50;0.37;;;12.80;99.90;;;;;;5100090;28;20483;-84
2022/07/02 04:34:02;;;;;;;0.40;0.33;;;13.00;99.90;;;;;;5102495;28;20519;-85
2022/07/02 04:36:29;;;;;;;0.50;0.30;;;13.20;99.90;;;;;;5100620;28;21013;-87
2022/07/02 04:38:56;;;;;;;0.70;0.50;;;13.40;99.90;;;;;;5104194;28;20473;-85
2022/07/02 04:41:23;;;;;;;0.87;0.60;;;13.70;99.90;;;;;;5102677;28;20554;-85
2022/07/02 04:43:50;;;;;;;0.40;0.40;;;13.70;99.90;;;;;;5102463;28;20515;-86
2022/07/02 04:46:17;;;;;;;1.43;0.40;;;13.70;99.90;;;;;;5106918;28;20519;-86
2022/07/02 04:48:45;;;;;;;0.40;0.40;;;13.90;99.90;;;;;;5107204;28;20470;-82
2022/07/02 04:51:12;;;;;;;0.60;0.40;;;13.90;99.90;;;;;;5106352;28;20539;-83
2022/07/02 04:53:39;;;;;;;0.43;0.40;;;13.80;99.90;;;;;;5107629;28;20500;-84
2022/07/02 04:56:06;;;;;;;1.07;0.40;;;13.80;99.90;;;;;;5106670;28;21139;-84
2022/07/02 04:58:33;;;;;;;0.60;0.40;;;14.00;99.90;;;;;;5108024;28;20455;-82
2022/07/02 05:01:00;;;;;;;0.40;0.40;;;13.90;99.90;;;;;;5104736;28;21193;-84
2022/07/02 05:03:27;;;;;;;0.60;0.33;;;14.00;99.90;;;;;;5107799;28;20451;-85
2022/07/02 05:05:55;;;;;;;0.50;0.37;;;14.00;99.90;;;;;;5106157;28;20478;-84
2022/07/02 05:08:26;;;;;;;0.50;0.40;;;14.10;99.90;;;;;;5103447;28;20635;-84
2022/07/02 05:10:53;;;;;;;1.23;0.43;;;14.20;99.90;;;;;;5103050;28;20490;-85
2022/07/02 05:13:20;;;;;;;0.57;0.40;;;14.30;99.90;;;;;;5101571;27;20535;-84
2022/07/02 05:15:47;;;;;;;0.60;0.40;;;14.50;99.90;;;;;;5109971;27;20469;-83
2022/07/02 05:18:14;;;;;;;0.50;0.50;;;14.60;99.90;;;;;;5108091;27;20467;-82
2022/07/02 05:20:42;;;;;;;0.70;0.40;;;14.80;99.90;;;;;;5119876;27;20475;-82
2022/07/02 05:23:10;;;;;;;1.57;0.60;;;15.10;99.90;;;;;;5113081;28;20466;-83
2022/07/02 05:25:37;;;;;;;0.50;0.40;;;15.10;99.90;;;;;;5105699;28;20552;-81
2022/07/02 05:28:04;;;;;;;1.70;0.50;;;15.00;99.90;;;;;;5104332;28;20459;-82
2022/07/02 05:30:31;;;;;;;0.60;0.60;;;15.10;99.90;;;;;;5106154;28;20862;-85
2022/07/02 05:32:58;;;;;;;0.77;0.50;;;15.20;99.90;;;;;;5106073;28;20893;-85
2022/07/02 05:35:25;;;;;;;0.67;0.50;;;15.30;99.90;;;;;;5106327;27;20452;-85
2022/07/02 05:37:52;;;;;;;0.57;0.50;;;15.30;99.90;;;;;;5106383;28;20993;-85
2022/07/02 05:40:21;;;;;;;0.40;0.40;;;15.40;99.90;;;;;;5107417;28;20464;-85
2022/07/02 05:42:48;;;;;;;1.50;0.53;;;15.60;99.90;;;;;;5105480;28;20589;-88
2022/07/02 05:45:15;;;;;;;0.87;0.87;;;15.60;99.90;;;;;;5106041;28;20467;-87
2022/07/02 05:47:42;;;;;;;0.90;0.90;;;15.70;99.90;;;;;;5105008;28;21004;-86
2022/07/02 05:50:10;;;;;;;0.83;0.83;;;15.90;99.90;;;;;;5101200;28;20456;-85
2022/07/02 05:52:37;;;;;;;1.23;0.97;;;15.80;99.90;;;;;;5106367;28;20488;-87
2022/07/02 05:55:04;;;;;;;0.70;0.70;;;15.60;99.90;;;;;;5101281;28;20496;-87
2022/07/02 05:57:33;;;;;;;1.80;0.83;;;15.30;99.90;;;;;;5100258;28;20917;-87
2022/07/02 06:00:00;;;;;;;1.67;0.60;;;15.20;99.90;;;;;;5106630;28;20521;-83
2022/07/02 06:02:27;;;;;;;1.63;0.97;;;15.30;99.90;;;;;;5103671;28;20468;-86
2022/07/02 06:04:54;;;;;;;2.13;0.73;;;15.40;99.90;;;;;;5103265;28;20533;-84
2022/07/02 06:10:06;;;;;;;0.70;0.57;;;16.00;99.90;;;;;;5102225;28;20508;-84
2022/07/02 06:12:34;;;;;;;0.73;0.60;;;16.50;99.90;;;;;;5105498;28;20554;-83
2022/07/02 06:15:02;;;;;;;0.73;0.70;;;17.10;99.90;;;;;;5102606;28;20489;-83
2022/07/02 06:17:29;;;;;;;0.90;0.90;;;17.70;99.90;;;;;;5106793;28;20530;-84
2022/07/02 06:19:56;;;;;;;3.90;1.67;;;17.80;99.90;;;;;;5105579;27;20545;-84
2022/07/02 06:22:23;;;;;;;1.67;0.60;;;18.00;99.90;;;;;;5103103;27;20466;-83
2022/07/02 06:25:04;;;;;;;0.90;0.70;;;18.30;99.90;;;;;;5102616;27;20462;-86
2022/07/02 06:27:33;;;;;;;0.70;0.60;;;18.50;99.90;;;;;;5096878;27;20530;-85
2022/07/02 06:30:01;;;;;;;1.53;0.50;;;18.60;99.90;;;;;;5099871;27;20465;-87
2022/07/02 06:32:31;;;;;;;0.67;0.67;;;18.90;99.90;;;;;;5091572;27;21173;-86
2022/07/02 06:34:58;;;;;;;0.60;0.60;;;18.90;99.90;;;;;;5094998;27;20462;-85
2022/07/02 06:37:26;;;;;;;0.60;0.60;;;18.50;99.90;;;;;;5093951;27;20558;-87
2022/07/02 06:39:53;;;;;;;0.60;0.60;;;18.40;99.90;;;;;;5097261;28;20470;-85
2022/07/02 06:42:19;;;;;;;2.67;0.63;;;18.10;99.90;;;;;;5099949;28;20872;-85
2022/07/02 06:44:46;;;;;;;1.37;0.77;;;18.30;99.90;;;;;;5103023;28;20463;-85
2022/07/02 06:47:15;;;;;;;0.70;0.40;;;18.00;99.90;;;;;;5096383;27;20513;-85
2022/07/02 06:49:42;;;;;;;0.80;0.70;;;17.80;99.90;;;;;;5099589;27;20899;-88
2022/07/02 06:52:09;;;;;;;0.70;0.57;;;17.70;99.90;;;;;;5091376;28;20581;-86
2022/07/02 06:54:36;;;;;;;0.60;0.53;;;17.30;99.90;;;;;;5100742;27;20470;-87
2022/07/02 06:57:04;;;;;;;0.53;0.50;;;17.20;99.90;;;;;;5098457;27;21082;-86
2022/07/02 06:59:31;;;;;;;0.60;0.50;;;17.60;99.90;;;;;;5093663;28;21216;-86
2022/07/02 07:01:58;;;;;;;0.50;0.50;;;17.50;99.90;;;;;;5092953;27;20473;-85
2022/07/02 07:04:28;;;;;;;3.00;0.60;;;17.70;99.90;;;;;;5095901;27;21269;-88
2022/07/02 07:06:55;;;;;;;0.60;0.60;;;18.30;99.90;;;;;;5096016;27;20465;-87
2022/07/02 07:09:22;;;;;;;0.50;0.50;;;18.50;99.90;;;;;;5098630;27;20457;-85
2022/07/02 07:11:49;;;;;;;0.70;0.50;;;18.70;99.90;;;;;;5094667;28;20500;-86
2022/07/02 07:14:16;;;;;;;0.60;0.60;;;18.80;99.90;;;;;;5103440;28;20489;-86
2022/07/02 07:16:44;;;;;;;1.10;0.40;;;18.80;99.90;;;;;;5095056;27;20474;-85
2022/07/02 07:19:11;;;;;;;0.60;0.40;;;19.00;99.90;;;;;;5093558;27;20466;-87
2022/07/02 07:21:41;;;;;;;0.50;0.50;;;18.50;99.90;;;;;;5095233;27;20496;-86
2022/07/02 07:24:10;;;;;;;0.87;0.70;;;18.40;99.90;;;;;;5096167;27;20463;-88
2022/07/02 07:26:38;;;;;;;0.60;0.50;;;18.40;99.90;;;;;;5100241;27;20464;-86
2022/07/02 07:29:06;;;;;;;0.50;0.40;;;18.00;99.90;;;;;;5095243;27;20546;-86
2022/07/02 07:31:33;;;;;;;0.80;0.40;;;18.20;99.90;;;;;;5099954;28;20464;-87
2022/07/02 07:34:01;;;;;;;0.60;0.60;;;18.10;99.90;;;;;;5096473;27;20480;-89
2022/07/02 07:36:28;;;;;;;0.60;0.60;;;18.40;99.90;;;;;;5100248;28;20454;-85
2022/07/02 07:38:57;;;;;;;0.60;0.50;;;18.20;99.90;;;;;;5098426;27;20580;-85
2022/07/02 07:41:24;;;;;;;0.50;0.50;;;18.20;99.90;;;;;;5100217;28;20968;-86
2022/07/02 07:43:52;;;;;;;0.60;0.53;;;18.50;99.90;;;;;;5099544;28;20967;-86
2022/07/02 07:46:20;;;;;;;0.60;0.50;;;19.00;99.90;;;;;;5099941;27;20532;-86
2022/07/02 07:48:47;;;;;;;3.77;0.70;;;19.20;99.90;;;;;;5094673;27;21048;-86
2022/07/02 07:51:14;;;;;;;0.57;0.40;;;19.40;99.90;;;;;;5094161;28;20950;-85
2022/07/02 07:53:43;;;;;;;0.70;0.60;;;19.50;99.90;;;;;;5104900;28;20548;-86
2022/07/02 07:56:12;;;;;;;0.50;0.40;;;19.60;99.90;;;;;;5093619;28;20468;-86
2022/07/02 07:58:39;;;;;;;0.50;0.40;;;19.70;99.90;;;;;;5099117;28;20498;-86
2022/07/02 08:01:06;;;;;;;0.50;0.40;;;19.60;99.90;;;;;;5099140;28;20960;-86
2022/07/02 08:03:33;;;;;;;0.57;0.40;;;20.00;99.90;;;;;;5102321;28;20983;-88
2022/07/02 08:06:00;;;;;;;1.13;0.60;;;20.10;99.90;;;;;;5106446;27;20864;-86
2022/07/02 08:08:27;;;;;;;0.50;0.50;;;20.20;99.90;;;;;;5107732;28;20449;-87
2022/07/02 08:10:54;;;;;;;0.43;0.40;;;19.90;99.90;;;;;;5102566;28;21012;-87
2022/07/02 08:13:23;;;;;;;0.50;0.50;;;20.10;99.90;;;;;;5108540;28;21063;-88
2022/07/02 08:15:50;;;;;;;0.50;0.40;;;19.90;99.50;;;;;;5106028;28;20497;-86
2022/07/02 08:18:17;;;;;;;0.77;0.33;;;20.10;99.90;;;;;;5121948;27;20475;-87
2022/07/02 08:20:44;;;;;;;0.40;0.37;;;20.20;99.90;;;;;;5113178;28;20485;-86
2022/07/02 08:23:11;;;;;;;0.50;0.40;;;20.60;99.90;;;;;;5125319;27;20523;-86
2022/07/02 08:25:38;;;;;;;0.50;0.40;;;20.40;99.90;;;;;;5109108;27;20464;-87
2022/07/02 08:28:05;;;;;;;1.53;0.60;;;20.20;99.90;;;;;;5104062;28;20499;-88
2022/07/02 08:30:33;;;;;;;0.50;0.40;;;20.60;99.90;;;;;;5095431;28;20969;-87
2022/07/02 08:33:00;;;;;;;0.97;0.40;;;20.50;99.90;;;;;;5103754;27;20482;-89
2022/07/02 08:35:27;;;;;;;0.50;0.40;;;20.70;99.90;;;;;;5107814;27;21045;-89
2022/07/02 08:37:55;;;;;;;0.50;0.40;;;21.10;97.70;;;;;;5101832;27;20920;-87
2022/07/02 08:40:24;;;;;;;2.30;0.50;;;21.20;99.90;;;;;;5094658;27;21024;-86
2022/07/02 08:42:53;;;;;;;0.53;0.40;;;20.70;97.20;;;;;;5094496;27;20472;-87
2022/07/02 08:45:23;;;;;;;0.50;0.43;;;20.30;99.90;;;;;;5093360;27;20458;-87
2022/07/02 08:47:54;;;;;;;0.50;0.30;;;20.40;99.70;;;;;;5091760;27;20467;-87
2022/07/02 08:50:22;;;;;;;0.53;0.40;;;20.40;97.50;;;;;;5097049;27;20465;-87
2022/07/02 08:52:51;;;;;;;0.50;0.40;;;20.50;99.00;;;;;;5097052;27;20488;-87
2022/07/02 08:55:19;;;;;;;0.47;0.40;;;20.80;99.00;;;;;;5097900;28;20477;-87
2022/07/02 08:57:48;;;;;;;0.60;0.40;;;21.40;99.90;;;;;;5099367;28;20508;-87
2022/07/02 09:00:15;;;;;;;0.50;0.40;;;21.40;99.60;;;;;;5108257;27;20465;-87
2022/07/02 09:02:43;;;;;;;1.33;0.97;;;20.50;96.50;;;;;;5107989;27;20469;-90
2022/07/02 09:05:13;;;;;;;2.70;0.97;;;20.40;98.00;;;;;;5096401;28;20476;-90
2022/07/02 09:07:40;;;;;;;0.93;0.53;;;20.30;98.60;;;;;;5093962;27;20545;-87
2022/07/02 09:10:10;;;;;;;0.50;0.50;;;20.80;99.60;;;;;;5103891;27;20540;-88
2022/07/02 09:12:38;;;;;;;1.80;0.50;;;21.60;99.30;;;;;;5099482;27;20465;-86
2022/07/02 09:15:06;;;;;;;0.70;0.57;;;21.80;97.10;;;;;;5102740;27;21024;-87
2022/07/02 09:17:34;;;;;;;3.90;2.73;;;21.90;95.00;;;;;;5093619;27;20961;-87
2022/07/02 09:20:01;;;;;;;8.97;3.50;;;21.80;95.90;;;;;;5098122;27;20466;-89
2022/07/02 09:22:34;;;;;;;4.17;2.07;;;22.10;95.20;;;;;;5088658;27;21078;-89
2022/07/02 09:25:09;;;;;;;1.53;1.30;;;22.30;96.80;;;;;;5097997;27;20462;-85
2022/07/02 09:27:36;;;;;;;1.00;0.90;;;22.40;96.30;;;;;;5096557;27;20458;-87
2022/07/02 09:30:05;;;;;;;1.00;0.50;;;22.60;95.40;;;;;;5117565;27;20507;-89
2022/07/02 09:32:40;;;;;;;0.63;0.40;;;22.50;95.60;;;;;;5120640;27;20467;-89
2022/07/02 09:35:08;;;;;;;0.40;0.30;;;22.70;95.40;;;;;;5120035;27;20484;-88
2022/07/02 09:37:36;;;;;;;1.30;0.70;;;22.80;96.60;;;;;;5121459;28;20466;-90
2022/07/02 09:40:04;;;;;;;0.60;0.40;;;22.70;94.80;;;;;;5116765;27;20454;-89
2022/07/02 09:42:34;;;;;;;0.60;0.47;;;23.00;95.00;;;;;;5111932;27;20447;-91
2022/07/02 09:45:03;;;;;;;1.33;0.70;;;22.20;93.10;;;;;;5120770;27;20478;-90
2022/07/02 09:47:36;;;;;;;0.97;0.50;;;22.30;96.10;;;;;;5119397;28;20533;-92
2022/07/02 09:50:05;;;;;;;0.77;0.60;;;22.40;93.50;;;;;;5113187;27;20466;-88
2022/07/02 09:52:32;;;;;;;0.50;0.40;;;22.60;91.10;;;;;;5112404;28;20459;-89
2022/07/02 09:55:07;;;;;;;0.50;0.30;;;22.00;89.20;;;;;;5112214;27;20466;-93
2022/07/02 09:57:34;;;;;;;0.50;0.40;;;21.90;92.00;;;;;;5099845;28;21025;-92
2022/07/02 10:00:07;;;;;;;0.50;0.30;;;21.50;88.40;;;;;;5110808;28;20450;-90
2022/07/02 10:02:40;;;;;;;0.40;0.30;;;21.60;93.10;;;;;;5107098;28;20467;-92
2022/07/02 10:05:07;;;;;;;0.70;0.30;;;21.60;91.10;;;;;;5111563;27;20504;-89
2022/07/02 10:07:34;;;;;;;0.70;0.70;;;21.90;91.40;;;;;;5112111;27;20465;-89
2022/07/02 10:10:05;;;;;;;2.10;0.70;;;22.00;88.70;;;;;;5112334;27;20487;-90
2022/07/02 10:12:32;;;;;;;0.50;0.40;;;21.90;87.20;;;;;;5109316;28;20946;-89
2022/07/02 10:15:04;;;;;;;1.53;0.30;;;22.00;89.20;;;;;;5114028;28;20489;-93
2022/07/02 10:17:34;;;;;;;0.40;0.37;;;21.50;86.60;;;;;;5105292;28;20457;-92
2022/07/02 10:20:03;;;;;;;0.53;0.40;;;21.80;92.30;;;;;;5105691;28;20928;-91
2022/07/02 10:22:32;;;;;;;0.40;0.40;;;22.00;91.00;;;;;;5114742;27;20567;-91
2022/07/02 10:25:00;;;;;;;0.50;0.40;;;22.00;86.20;;;;;;5103253;27;20465;-91
2022/07/02 10:27:29;;;;;;;0.67;0.50;;;22.20;90.90;;;;;;5099713;28;20518;-90
2022/07/02 10:29:57;;;;;;;0.53;0.40;;;22.20;88.50;;;;;;5099567;27;20460;-92
2022/07/02 10:32:30;;;;;;;0.80;0.40;;;22.20;91.20;;;;;;5103961;27;20465;-91
2022/07/02 10:35:07;;;;;;;0.40;0.30;;;21.90;90.90;;;;;;5102849;28;20482;-93
2022/07/02 10:37:36;;;;;;;0.40;0.40;;;22.20;90.10;;;;;;5094120;28;20553;-93
2022/07/02 10:40:04;;;;;;;0.40;0.30;;;22.50;90.10;;;;;;5099341;28;21040;-91
2022/07/02 10:42:45;;;;;;;0.40;0.30;;;22.90;92.00;;;;;;5104917;27;20484;-91
2022/07/02 10:45:17;;;;;;;0.57;0.47;;;23.30;90.70;;;;;;5095899;27;20470;-93
2022/07/02 10:48:01;;;;;;;0.60;0.60;;;23.30;87.90;;;;;;5101664;28;20536;-93
2022/07/02 10:50:40;;;;;;;0.50;0.40;;;23.20;88.10;;;;;;5093438;28;20554;-91
2022/07/02 10:53:09;;;;;;;0.60;0.50;;;23.30;88.50;;;;;;5094587;27;20470;-91
2022/07/02 10:55:37;;;;;;;0.40;0.30;;;23.40;79.90;;;;;;5098343;27;20468;-91
2022/07/02 10:58:24;;;;;;;0.53;0.40;;;23.40;79.00;;;;;;5098113;27;20462;-91
2022/07/02 11:00:52;;;;;;;0.50;0.40;;;23.00;80.80;;;;;;5093032;27;21310;-91
2022/07/02 11:03:21;;;;;;;0.40;0.40;;;23.20;89.70;;;;;;5099311;27;20466;-92
2022/07/02 11:06:00;;;;;;;0.40;0.30;;;23.60;85.80;;;;;;5106098;27;20462;-91
2022/07/02 11:09:08;;;;;;;0.50;0.30;;;23.40;84.00;;;;;;5100295;27;20461;-95
2022/07/02 11:11:53;;;;;;;0.50;0.40;;;23.90;79.40;;;;;;5114295;27;20991;-92
2022/07/02 11:14:27;;;;;;;0.50;0.40;;;23.70;82.30;;;;;;5117740;27;20798;-90
2022/07/02 11:16:56;;;;;;;0.50;0.40;;;22.80;77.50;;;;;;5130555;27;20450;-91
2022/07/02 11:19:59;;;;;;;0.40;0.30;;;23.00;80.60;;;;;;5106774;27;20496;-92
2022/07/02 11:22:32;;;;;;;0.60;0.30;;;23.30;82.80;;;;;;5084551;28;20527;-92
2022/07/02 11:24:59;;;;;;;2.13;0.40;;;23.60;81.10;;;;;;5086872;28;20464;-91
2022/07/02 11:27:26;;;;;;;0.40;0.30;;;23.80;81.10;;;;;;5079263;28;20512;-92
2022/07/02 11:29:55;;;;;;;0.40;0.30;;;23.70;71.40;;;;;;5082830;28;20502;-92
2022/07/02 11:32:22;;;;;;;1.13;0.30;;;23.80;72.90;;;;;;5078770;28;20516;-89
2022/07/02 11:34:59;;;;;;;0.40;0.30;;;23.60;73.10;;;;;;5076180;28;20484;-89
2022/07/02 11:37:26;;;;;;;0.50;0.40;;;23.70;76.10;;;;;;5077433;28;20484;-90
2022/07/02 11:39:54;;;;;;;0.50;0.33;;;23.50;73.70;;;;;;5079547;28;20557;-91
2022/07/02 11:42:36;;;;;;;0.40;0.30;;;23.90;77.70;;;;;;5076959;28;20938;-89
2022/07/02 11:45:05;;;;;;;0.50;0.40;;;23.90;74.00;;;;;;5079948;28;20902;-91
2022/07/02 11:47:32;;;;;;;0.50;0.30;;;24.40;76.20;;;;;;5075758;28;20459;-91
2022/07/02 11:50:00;;;;;;;0.50;0.40;;;24.70;75.40;;;;;;5074608;28;20447;-92
2022/07/02 11:52:27;;;;;;;0.40;0.30;;;24.80;69.40;;;;;;5084481;28;20454;-94
2022/07/02 11:54:54;;;;;;;0.40;0.30;;;24.20;69.10;;;;;;5085811;28;20487;-93
2022/07/02 11:57:31;;;;;;;0.40;0.30;;;23.60;74.20;;;;;;5090571;28;20504;-92
2022/07/02 11:59:58;;;;;;;1.90;0.83;;;23.80;80.90;;;;;;5088851;28;20488;-93
2022/07/02 12:02:37;;;;;;;0.40;0.30;;;23.70;72.80;;;;;;5085862;28;20485;-90
2022/07/02 12:05:15;;;;;;;0.50;0.30;;;23.70;71.30;;;;;;5080794;28;21269;-90
2022/07/02 12:07:42;;;;;;;0.40;0.30;;;23.60;74.80;;;;;;5076233;28;20458;-92
2022/07/02 12:10:10;;;;;;;0.40;0.30;;;23.60;67.30;;;;;;5082905;28;20465;-91
2022/07/02 12:12:37;;;;;;;0.40;0.30;;;24.10;77.30;;;;;;5086221;28;20522;-93
2022/07/02 12:15:06;;;;;;;0.40;0.30;;;24.30;78.60;;;;;;5084200;28;20475;-92
2022/07/02 12:17:35;;;;;;;0.50;0.30;;;24.60;73.30;;;;;;5076679;28;20465;-92
2022/07/02 12:20:03;;;;;;;0.40;0.30;;;25.00;69.90;;;;;;5081821;28;20897;-92
2022/07/02 12:22:30;;;;;;;0.40;0.30;;;24.60;65.80;;;;;;5105337;28;20462;-94
2022/07/02 12:24:58;;;;;;;0.70;0.33;;;24.90;75.20;;;;;;5104191;28;20454;-93
2022/07/02 12:27:25;;;;;;;0.60;0.50;;;24.80;70.90;;;;;;5098455;28;20454;-92
2022/07/02 12:29:55;;;;;;;0.50;0.33;;;24.80;76.00;;;;;;5101307;28;20461;-94
2022/07/02 12:32:24;;;;;;;0.50;0.30;;;25.20;74.00;;;;;;5098118;28;20538;-93
2022/07/02 12:34:54;;;;;;;0.50;0.30;;;25.50;73.60;;;;;;5095600;28;20486;-92
2022/07/02 12:37:24;;;;;;;0.50;0.30;;;25.00;70.60;;;;;;5097829;28;20528;-92
2022/07/02 12:39:58;;;;;;;0.50;0.40;;;25.00;71.70;;;;;;5096084;28;20523;-92
2022/07/02 12:42:26;;;;;;;0.70;0.30;;;25.30;69.20;;;;;;5093128;28;20454;-92
2022/07/02 12:45:01;;;;;;;0.47;0.37;;;24.90;71.10;;;;;;5102844;28;20490;-92
2022/07/02 12:47:31;;;;;;;1.33;0.40;;;25.20;74.00;;;;;;5104620;28;20450;-92
2022/07/02 12:50:01;;;;;;;0.83;0.40;;;24.90;66.70;;;;;;5106375;28;21140;-93
2022/07/02 12:52:30;;;;;;;0.50;0.30;;;24.90;68.70;;;;;;5091943;28;20485;-92
2022/07/02 12:54:57;;;;;;;0.50;0.40;;;24.90;68.80;;;;;;5097106;28;20531;-93
2022/07/02 12:57:26;;;;;;;0.60;0.40;;;25.00;67.10;;;;;;5098666;28;20462;-91
2022/07/02 12:59:54;;;;;;;1.40;0.40;;;24.70;68.10;;;;;;5096428;28;20489;-92
2022/07/02 13:02:27;;;;;;;0.50;0.40;;;24.60;72.30;;;;;;5103447;27;20458;-91